createdAt,value
2018-10-19T00:01:59.217Z,30.90
2018-10-19T00:04:27.820Z,31.83
2018-10-19T00:06:56.455Z,30.27
2018-10-19T00:09:25.153Z,32.17
2018-10-19T00:11:53.749Z,29.10
2018-10-19T00:14:22.354Z,30.17
2018-10-19T00:16:50.912Z,29.57
2018-10-19T00:19:19.575Z,28.90
2018-10-19T00:21:48.799Z,30.53
2018-10-19T00:24:17.448Z,29.00
2018-10-19T00:26:46.746Z,27.17
2018-10-19T00:29:15.365Z,26.83
2018-10-19T00:31:43.957Z,23.30
2018-10-19T00:34:12.516Z,22.13
2018-10-19T00:36:41.136Z,25.87
2018-10-19T00:39:11.321Z,25.27
2018-10-19T00:41:40.066Z,26.60
2018-10-19T00:44:08.669Z,26.13
2018-10-19T00:46:37.244Z,26.37
2018-10-19T00:49:06.989Z,27.53
2018-10-19T00:51:40.067Z,27.87
2018-10-19T00:54:08.875Z,26.63
2018-10-19T00:56:37.750Z,25.87
2018-10-19T00:59:06.443Z,29.47
2018-10-19T01:01:35.078Z,27.70
2018-10-19T01:04:03.633Z,28.40
2018-10-19T01:06:32.299Z,29.73
2018-10-19T01:09:00.920Z,31.97
2018-10-19T01:11:29.518Z,30.97
2018-10-19T01:13:58.124Z,30.23
2018-10-19T01:16:26.820Z,27.17
2018-10-19T01:18:55.541Z,31.40
2018-10-19T01:21:24.209Z,28.07
2018-10-19T01:23:52.826Z,24.63
2018-10-19T01:26:21.413Z,24.47
2018-10-19T01:28:50.127Z,24.50
2018-10-19T01:31:18.828Z,25.67
2018-10-19T01:33:47.457Z,22.93
2018-10-19T01:36:16.064Z,23.77
2018-10-19T01:38:44.688Z,25.93
2018-10-19T01:41:14.074Z,25.50
2018-10-19T01:43:42.673Z,23.23
2018-10-19T01:46:11.255Z,57.60
2018-10-19T01:48:39.782Z,29.73
2018-10-19T01:51:08.400Z,24.90
2018-10-19T01:53:37.137Z,24.37
2018-10-19T01:56:05.790Z,24.37
2018-10-19T01:58:34.365Z,26.33
2018-10-19T02:01:03.001Z,28.10
2018-10-19T02:03:31.594Z,26.57
2018-10-19T02:06:00.209Z,28.23
2018-10-19T02:08:28.852Z,27.80
2018-10-19T02:11:00.264Z,23.80
2018-10-19T02:13:28.972Z,65.00
2018-10-19T02:15:57.549Z,63.23
2018-10-19T02:18:26.187Z,26.83
2018-10-19T02:20:54.780Z,27.00
2018-10-19T02:23:23.401Z,27.07
2018-10-19T02:25:51.985Z,23.07
2018-10-19T02:28:20.687Z,22.37
2018-10-19T02:30:49.298Z,26.10
2018-10-19T02:33:17.894Z,46.17
2018-10-19T02:35:46.484Z,23.47
2018-10-19T02:38:15.033Z,27.23
2018-10-19T02:40:43.634Z,23.30
2018-10-19T02:43:12.371Z,27.13
2018-10-19T02:45:42.765Z,27.93
2018-10-19T02:48:12.106Z,26.37
2018-10-19T02:50:40.736Z,24.30
2018-10-19T02:53:09.295Z,25.00
2018-10-19T02:55:38.007Z,26.77
2018-10-19T02:58:06.609Z,28.43
2018-10-19T03:00:35.189Z,25.27
2018-10-19T03:03:03.801Z,27.70
2018-10-19T03:05:32.375Z,26.83
2018-10-19T03:08:01.112Z,25.30
2018-10-19T03:10:29.829Z,25.43
2018-10-19T03:12:58.490Z,25.30
2018-10-19T03:15:27.117Z,26.97
2018-10-19T03:17:56.427Z,24.40
2018-10-19T03:20:25.016Z,26.90
2018-10-19T03:22:53.767Z,28.13
2018-10-19T03:25:23.047Z,31.67
2018-10-19T03:27:52.374Z,35.80
2018-10-19T03:30:21.140Z,35.27
2018-10-19T03:32:49.743Z,28.37
2018-10-19T03:35:18.338Z,31.80
2018-10-19T03:37:47.041Z,30.80
2018-10-19T03:40:15.665Z,33.13
2018-10-19T03:42:44.221Z,32.33
2018-10-19T03:45:12.888Z,32.37
2018-10-19T03:47:41.480Z,28.23
2018-10-19T03:50:10.743Z,27.57
2018-10-19T03:52:39.297Z,31.53
2018-10-19T03:55:07.945Z,31.33
2018-10-19T03:57:36.663Z,34.23
2018-10-19T04:00:05.418Z,35.53
2018-10-19T04:02:33.948Z,30.50
2018-10-19T04:05:02.633Z,28.23
2018-10-19T04:07:31.346Z,24.67
2018-10-19T04:10:00.070Z,23.53
2018-10-19T04:12:29.371Z,24.90
2018-10-19T04:14:58.009Z,28.77
2018-10-19T04:17:26.601Z,27.67
2018-10-19T04:19:55.271Z,26.03
2018-10-19T04:22:23.976Z,26.93
2018-10-19T04:24:52.696Z,26.77
2018-10-19T04:27:21.622Z,27.27
2018-10-19T04:29:50.581Z,29.53
2018-10-19T04:32:19.235Z,34.20
2018-10-19T04:34:47.883Z,32.97
2018-10-19T04:37:16.562Z,29.30
2018-10-19T04:39:45.538Z,31.87
2018-10-19T04:42:14.216Z,36.27
2018-10-19T04:44:42.842Z,31.93
2018-10-19T04:47:11.718Z,32.53
2018-10-19T04:49:40.203Z,36.10
2018-10-19T04:52:08.852Z,31.00
2018-10-19T04:54:37.483Z,31.00
2018-10-19T04:57:06.710Z,34.37
2018-10-19T04:59:35.319Z,38.03
2018-10-19T05:02:03.986Z,37.33
2018-10-19T05:04:32.631Z,42.83
2018-10-19T05:07:01.519Z,47.23
2018-10-19T05:09:30.117Z,47.30
2018-10-19T05:11:58.918Z,49.13
2018-10-19T05:14:27.550Z,62.43
2018-10-19T05:16:56.375Z,52.00
2018-10-19T05:19:24.914Z,70.10
2018-10-19T05:21:53.599Z,79.47
2018-10-19T05:24:22.151Z,66.77
2018-10-19T05:26:50.754Z,56.77
2018-10-19T05:29:19.415Z,49.43
2018-10-19T05:31:48.140Z,66.10
2018-10-19T05:34:16.938Z,50.17
2018-10-19T05:36:45.598Z,45.93
2018-10-19T05:39:14.305Z,46.23
2018-10-19T05:41:42.993Z,41.77
2018-10-19T05:44:11.761Z,40.23
2018-10-19T05:46:40.464Z,48.47
2018-10-19T05:49:09.245Z,48.37
2018-10-19T05:51:38.076Z,42.37
2018-10-19T05:54:06.842Z,55.57
2018-10-19T05:56:35.725Z,41.10
2018-10-19T05:59:04.886Z,51.80
2018-10-19T06:01:33.762Z,39.53
2018-10-19T06:04:02.499Z,65.77
2018-10-19T06:06:31.210Z,64.77
2018-10-19T06:08:59.936Z,66.57
2018-10-19T06:11:28.798Z,69.43
2018-10-19T06:13:57.813Z,48.57
2018-10-19T06:16:26.653Z,50.70
2018-10-19T06:18:55.459Z,43.87
2018-10-19T06:21:24.217Z,42.93
2018-10-19T06:23:52.944Z,39.97
2018-10-19T06:26:22.059Z,45.13
2018-10-19T06:28:50.911Z,48.60
2018-10-19T06:31:19.642Z,50.50
2018-10-19T06:33:48.431Z,35.23
2018-10-19T06:36:17.252Z,40.80
2018-10-19T06:38:46.306Z,37.90
2018-10-19T06:41:15.338Z,47.63
2018-10-19T06:43:44.217Z,40.30
2018-10-19T06:46:12.921Z,35.47
2018-10-19T06:48:41.731Z,33.87
2018-10-19T06:51:10.416Z,36.53
2018-10-19T06:53:39.178Z,43.47
2018-10-19T06:56:08.496Z,57.43
2018-10-19T06:58:37.222Z,67.83
2018-10-19T07:01:06.330Z,61.67
2018-10-19T07:03:35.193Z,43.53
2018-10-19T07:06:04.175Z,51.97
2018-10-19T07:08:32.876Z,43.70
2018-10-19T07:11:01.613Z,55.20
2018-10-19T07:13:30.281Z,74.20
2018-10-19T07:16:00.191Z,56.07
2018-10-19T07:18:28.818Z,59.13
2018-10-19T07:20:57.500Z,57.50
2018-10-19T07:23:26.254Z,54.43
2018-10-19T07:25:55.024Z,55.23
2018-10-19T07:28:23.807Z,76.43
2018-10-19T07:30:52.829Z,61.27
2018-10-19T07:33:21.448Z,51.17
2018-10-19T07:35:50.315Z,42.20
2018-10-19T07:38:19.066Z,39.47
2018-10-19T07:40:47.757Z,35.40
2018-10-19T07:43:16.529Z,38.80
2018-10-19T07:45:45.224Z,46.23
2018-10-19T07:48:14.176Z,48.77
2018-10-19T07:50:42.715Z,48.77
2018-10-19T07:53:11.509Z,45.00
2018-10-19T07:55:40.086Z,48.17
2018-10-19T07:58:08.819Z,48.90
2018-10-19T08:00:37.491Z,51.83
2018-10-19T08:03:06.003Z,50.50
2018-10-19T08:05:34.717Z,47.13
2018-10-19T08:08:03.316Z,45.17
2018-10-19T08:10:31.974Z,63.27
2018-10-19T08:13:00.560Z,43.27
2018-10-19T08:15:29.289Z,43.83
2018-10-19T08:17:57.922Z,38.80
2018-10-19T08:20:26.456Z,47.07
2018-10-19T08:22:55.225Z,56.20
2018-10-19T08:25:23.875Z,51.67
2018-10-19T08:27:53.022Z,46.43
2018-10-19T08:30:21.736Z,41.30
2018-10-19T08:32:50.456Z,41.17
2018-10-19T08:35:19.088Z,41.43
2018-10-19T08:37:47.748Z,50.00
2018-10-19T08:40:16.421Z,44.77
2018-10-19T08:42:45.070Z,41.47
2018-10-19T08:45:13.830Z,40.00
2018-10-19T08:47:42.558Z,52.33
2018-10-19T08:50:11.173Z,49.47
2018-10-19T08:52:39.841Z,49.07
2018-10-19T08:55:08.546Z,42.00
2018-10-19T08:57:37.291Z,42.33
2018-10-19T09:00:07.840Z,48.63
2018-10-19T09:02:36.397Z,57.00
2018-10-19T09:05:05.462Z,42.83
2018-10-19T09:07:34.338Z,53.73
2018-10-19T09:10:03.575Z,43.47
2018-10-19T09:12:32.274Z,48.37
2018-10-19T09:15:02.068Z,52.23
2018-10-19T09:17:30.637Z,41.93
2018-10-19T09:19:59.894Z,50.20
2018-10-19T09:22:28.546Z,48.50
2018-10-19T09:24:57.235Z,157.53
2018-10-19T09:27:25.938Z,67.97
2018-10-19T09:29:54.615Z,45.70
2018-10-19T09:32:23.196Z,38.87
2018-10-19T09:34:51.880Z,37.80
2018-10-19T09:37:20.461Z,46.20
2018-10-19T09:39:49.090Z,44.60
2018-10-19T09:42:17.718Z,44.70
2018-10-19T09:44:46.377Z,41.37
2018-10-19T09:47:15.149Z,52.30
2018-10-19T09:49:43.825Z,52.03
2018-10-19T09:52:12.397Z,42.73
2018-10-19T09:54:41.132Z,45.00
2018-10-19T09:57:09.859Z,40.77
2018-10-19T09:59:38.585Z,41.80
2018-10-19T10:02:07.239Z,42.97
2018-10-19T10:04:35.969Z,46.53
2018-10-19T10:07:04.880Z,43.67
2018-10-19T10:09:33.540Z,40.47
2018-10-19T10:12:02.137Z,48.43
2018-10-19T10:14:30.793Z,44.33
2018-10-19T10:16:59.452Z,39.10
2018-10-19T10:19:28.024Z,40.00
2018-10-19T10:21:56.673Z,55.50
2018-10-19T10:24:25.865Z,46.47
2018-10-19T10:26:54.558Z,41.67
2018-10-19T10:29:23.378Z,54.87
2018-10-19T10:31:52.039Z,37.13
2018-10-19T10:34:20.816Z,34.70
2018-10-19T10:36:49.503Z,36.70
2018-10-19T10:39:18.449Z,41.03
2018-10-19T10:41:46.986Z,48.10
2018-10-19T10:44:15.674Z,39.57
2018-10-19T10:46:44.216Z,36.13
2018-10-19T10:49:12.814Z,35.53
2018-10-19T10:51:41.365Z,36.67
2018-10-19T10:54:09.953Z,32.53
2018-10-19T10:56:38.587Z,31.73
2018-10-19T10:59:07.205Z,44.60
2018-10-19T11:01:35.836Z,31.03
2018-10-19T11:04:04.518Z,34.10
2018-10-19T11:06:33.190Z,29.10
2018-10-19T11:09:01.763Z,27.23
2018-10-19T11:11:30.362Z,28.43
2018-10-19T11:13:58.948Z,27.23
2018-10-19T11:16:27.645Z,30.90
2018-10-19T11:18:56.294Z,28.47
2018-10-19T11:21:24.926Z,27.97
2018-10-19T11:23:53.657Z,26.67
2018-10-19T11:26:22.206Z,26.33
2018-10-19T11:28:50.813Z,28.07
2018-10-19T11:31:19.400Z,26.90
2018-10-19T11:33:48.046Z,26.87
2018-10-19T11:36:16.760Z,30.57
2018-10-19T11:38:45.523Z,26.23
2018-10-19T11:41:14.085Z,24.70
2018-10-19T11:43:42.868Z,25.63
2018-10-19T11:46:11.623Z,25.57
2018-10-19T11:48:40.234Z,24.50
2018-10-19T11:51:08.765Z,24.80
2018-10-19T11:53:37.486Z,26.97
2018-10-19T11:56:06.954Z,25.63
2018-10-19T11:58:35.568Z,28.70
2018-10-19T12:01:04.179Z,27.40
2018-10-19T12:03:33.617Z,23.43
2018-10-19T12:06:02.170Z,27.13
2018-10-19T12:08:30.771Z,24.47
2018-10-19T12:10:59.368Z,99.23
2018-10-19T12:13:27.940Z,43.23
2018-10-19T12:15:56.590Z,31.50
2018-10-19T12:18:25.218Z,58.63
2018-10-19T12:20:53.833Z,26.97
2018-10-19T12:23:23.600Z,24.43
2018-10-19T12:25:52.295Z,22.67
2018-10-19T12:28:20.944Z,24.50
2018-10-19T12:30:49.577Z,23.80
2018-10-19T12:33:18.290Z,23.80
2018-10-19T12:35:46.901Z,48.53
2018-10-19T12:38:15.402Z,25.27
2018-10-19T12:40:44.086Z,120.87
2018-10-19T12:43:12.658Z,37.37
2018-10-19T12:46:51.414Z,28.60
2018-10-19T12:49:24.158Z,32.37
2018-10-19T12:51:52.687Z,23.47
2018-10-19T12:54:21.361Z,42.27
2018-10-19T12:56:50.056Z,37.43
2018-10-19T12:59:18.796Z,25.70
2018-10-19T13:01:47.343Z,27.53
2018-10-19T13:04:16.031Z,26.63
2018-10-19T13:06:44.590Z,27.40
2018-10-19T13:09:13.979Z,29.83
2018-10-19T13:11:43.222Z,28.13
2018-10-19T13:14:11.947Z,25.80
2018-10-19T13:16:40.614Z,25.13
2018-10-19T13:19:09.374Z,30.47
2018-10-19T13:21:38.049Z,36.93
2018-10-19T13:24:06.757Z,26.13
2018-10-19T13:26:35.518Z,37.93
2018-10-19T13:29:04.430Z,25.33
2018-10-19T13:31:33.037Z,23.53
2018-10-19T13:34:01.646Z,22.80
2018-10-19T13:36:30.313Z,22.03
2018-10-19T13:38:58.937Z,22.63
2018-10-19T13:41:27.612Z,22.77
2018-10-19T13:43:56.308Z,23.60
2018-10-19T13:46:25.029Z,23.53
2018-10-19T13:48:53.779Z,25.10
2018-10-19T13:51:22.471Z,29.03
2018-10-19T13:53:51.254Z,27.80
2018-10-19T13:56:19.809Z,22.87
2018-10-19T13:58:48.583Z,21.13
2018-10-19T14:01:17.199Z,23.67
2018-10-19T14:03:45.856Z,22.17
2018-10-19T14:06:15.103Z,22.07
2018-10-19T14:08:43.793Z,23.37
2018-10-19T14:11:12.689Z,30.60
2018-10-19T14:13:41.420Z,30.87
2018-10-19T14:16:10.174Z,30.13
2018-10-19T14:18:38.800Z,25.70
2018-10-19T14:21:07.560Z,117.10
2018-10-19T14:23:36.306Z,28.13
2018-10-19T14:26:05.001Z,26.57
2018-10-19T14:28:33.757Z,28.47
2018-10-19T14:31:02.370Z,28.27
2018-10-19T14:33:31.138Z,27.17
2018-10-19T14:35:59.614Z,28.07
2018-10-19T14:38:28.483Z,29.83
2018-10-19T14:40:57.700Z,25.87
2018-10-19T14:43:26.335Z,27.83
2018-10-19T14:45:54.981Z,29.43
2018-10-19T14:48:23.636Z,28.17
2018-10-19T14:50:52.382Z,28.87
2018-10-19T14:53:20.897Z,29.93
2018-10-19T14:55:49.640Z,31.40
2018-10-19T14:58:19.485Z,81.67
2018-10-19T15:00:48.373Z,29.33
2018-10-19T15:03:17.122Z,37.43
2018-10-19T15:05:45.617Z,32.37
2018-10-19T15:08:14.342Z,31.33
2018-10-19T15:10:43.267Z,34.30
2018-10-19T15:13:11.723Z,38.10
2018-10-19T15:15:40.302Z,42.03
2018-10-19T15:18:08.945Z,37.80
2018-10-19T15:20:37.584Z,41.57
2018-10-19T15:23:06.298Z,47.27
2018-10-19T15:25:35.041Z,93.20
2018-10-19T15:28:03.714Z,42.03
2018-10-19T15:30:32.339Z,38.60
2018-10-19T15:33:01.894Z,42.93
2018-10-19T15:35:30.494Z,43.13
2018-10-19T15:37:59.211Z,48.47
2018-10-19T15:40:27.845Z,44.13
2018-10-19T15:42:56.400Z,44.83
2018-10-19T15:45:25.254Z,44.63
2018-10-19T15:47:53.996Z,44.50
2018-10-19T15:50:22.606Z,44.13
2018-10-19T15:52:51.261Z,48.03
2018-10-19T15:55:19.865Z,50.97
2018-10-19T15:57:48.623Z,51.57
2018-10-19T16:00:17.690Z,51.73
2018-10-19T16:02:46.369Z,53.77
2018-10-19T16:05:15.080Z,53.07
2018-10-19T16:07:43.766Z,54.57
2018-10-19T16:10:12.401Z,55.30
2018-10-19T16:12:41.977Z,56.27
2018-10-19T16:15:11.456Z,57.43
2018-10-19T16:17:40.176Z,58.87
2018-10-19T16:20:09.944Z,62.07
2018-10-19T16:22:39.023Z,59.37
2018-10-19T16:25:08.465Z,61.60
2018-10-19T16:27:38.317Z,59.17
2018-10-19T16:30:08.140Z,60.57
2018-10-19T16:32:37.251Z,62.03
2018-10-19T16:35:06.157Z,64.40
2018-10-19T16:37:34.833Z,63.60
2018-10-19T16:40:03.471Z,65.73
2018-10-19T16:42:32.023Z,64.70
2018-10-19T16:45:01.467Z,62.17
2018-10-19T16:47:30.002Z,63.17
2018-10-19T16:49:58.569Z,66.23
2018-10-19T16:52:27.266Z,67.67
2018-10-19T16:54:55.677Z,127.83
2018-10-19T16:57:24.281Z,203.37
2018-10-19T16:59:53.451Z,153.60
2018-10-19T17:02:22.853Z,121.83
2018-10-19T17:04:51.500Z,81.63
2018-10-19T17:07:19.959Z,73.87
2018-10-19T17:09:48.505Z,70.00
2018-10-19T17:12:17.794Z,69.23
2018-10-19T17:14:47.204Z,67.97
2018-10-19T17:17:15.713Z,71.13
2018-10-19T17:19:44.280Z,71.30
2018-10-19T17:22:12.997Z,68.20
2018-10-19T17:24:41.761Z,73.70
2018-10-19T17:27:10.372Z,66.20
2018-10-19T17:29:38.913Z,65.67
2018-10-19T17:32:07.926Z,73.83
2018-10-19T17:34:39.755Z,74.77
2018-10-19T17:37:12.744Z,72.63
2018-10-19T17:39:46.628Z,67.10
2018-10-19T17:42:18.625Z,80.10
2018-10-19T17:44:50.612Z,79.57
2018-10-19T17:47:23.724Z,141.93
2018-10-19T17:49:58.019Z,134.93
2018-10-19T17:52:30.966Z,77.90
2018-10-19T17:55:03.609Z,74.63
2018-10-19T17:57:37.989Z,70.30
2018-10-19T18:00:08.883Z,76.47
2018-10-19T18:02:42.003Z,69.00
2018-10-19T18:05:10.753Z,73.63
2018-10-19T18:07:40.004Z,77.63
2018-10-19T18:10:08.593Z,86.63
2018-10-19T18:12:38.188Z,96.40
2018-10-19T18:15:06.794Z,162.53
2018-10-19T18:17:35.803Z,83.93
2018-10-19T18:20:04.391Z,83.00
2018-10-19T18:22:33.182Z,86.83
2018-10-19T18:25:02.214Z,84.57
2018-10-19T18:27:30.789Z,78.67
2018-10-19T18:30:00.015Z,81.73
2018-10-19T18:32:32.338Z,86.53
2018-10-19T18:35:04.844Z,80.37
2018-10-19T18:37:36.103Z,87.67
2018-10-19T18:40:07.599Z,83.73
2018-10-19T18:42:36.434Z,79.47
2018-10-19T18:45:06.459Z,89.27
2018-10-19T18:47:35.277Z,85.93
2018-10-19T18:50:04.187Z,97.07
2018-10-19T18:52:32.858Z,92.17
2018-10-19T18:55:01.802Z,83.93
2018-10-19T18:57:30.898Z,83.77
2018-10-19T18:59:59.474Z,85.70
2018-10-19T19:02:28.263Z,84.07
2018-10-19T19:04:57.289Z,96.03
2018-10-19T19:07:25.905Z,89.57
2018-10-19T19:10:00.141Z,88.10
2018-10-19T19:12:28.839Z,81.83
2018-10-19T19:14:57.700Z,81.70
2018-10-19T19:17:27.177Z,82.77
2018-10-19T19:20:01.193Z,88.07
2018-10-19T19:22:30.559Z,85.43
2018-10-19T19:25:04.436Z,93.97
2018-10-19T19:27:32.966Z,87.40
2018-10-19T19:30:01.513Z,90.70
2018-10-19T19:32:30.085Z,91.87
2018-10-19T19:34:59.751Z,87.97
2018-10-19T19:37:28.306Z,85.83
2018-10-19T19:39:57.018Z,85.87
2018-10-19T19:42:30.739Z,93.80
2018-10-19T19:45:01.010Z,135.17
2018-10-19T19:47:34.768Z,122.17
2018-10-19T19:50:05.709Z,101.20
2018-10-19T19:52:34.352Z,272.10
2018-10-19T19:55:04.854Z,110.63
2018-10-19T19:57:33.441Z,87.33
2018-10-19T20:00:04.474Z,89.13
2018-10-19T20:02:33.477Z,84.50
2018-10-19T20:05:02.228Z,91.53
2018-10-19T20:07:30.768Z,83.00
2018-10-19T20:10:00.367Z,90.37
2018-10-19T20:12:28.954Z,88.23
2018-10-19T20:15:00.214Z,79.67
2018-10-19T20:17:28.835Z,84.20
2018-10-19T20:19:57.428Z,83.37
2018-10-19T20:22:26.464Z,86.33
2018-10-19T20:24:55.080Z,89.80
2018-10-19T20:27:24.621Z,89.60
2018-10-19T20:29:54.785Z,90.00
2018-10-19T20:32:23.471Z,82.07
2018-10-19T20:34:56.712Z,81.70
2018-10-19T20:37:25.794Z,76.87
2018-10-19T20:39:54.686Z,78.30
2018-10-19T20:42:24.951Z,65.70
2018-10-19T20:44:53.592Z,74.60
2018-10-19T20:47:27.246Z,69.70
2018-10-19T20:49:58.131Z,78.00
2018-10-19T20:52:26.789Z,81.37
2018-10-19T20:54:59.775Z,67.33
2018-10-19T20:57:28.384Z,79.90
2018-10-19T20:59:57.014Z,65.97
2018-10-19T21:02:25.584Z,70.57
2018-10-19T21:04:54.218Z,71.80
2018-10-19T21:07:22.813Z,72.73
2018-10-19T21:09:51.399Z,70.83
2018-10-19T21:12:20.030Z,77.13
2018-10-19T21:14:48.741Z,70.70
2018-10-19T21:17:17.605Z,76.73
2018-10-19T21:19:46.164Z,71.87
2018-10-19T21:22:14.759Z,74.13
2018-10-19T21:24:43.272Z,66.70
2018-10-19T21:27:11.813Z,65.97
2018-10-19T21:29:40.361Z,70.93
2018-10-19T21:32:09.419Z,65.80
2018-10-19T21:34:37.981Z,65.20
2018-10-19T21:37:07.163Z,62.20
2018-10-19T21:39:35.713Z,58.80
2018-10-19T21:42:04.294Z,53.70
2018-10-19T21:44:32.933Z,62.93
2018-10-19T21:47:02.121Z,59.40
2018-10-19T21:49:30.589Z,54.07
2018-10-19T21:51:59.149Z,63.37
2018-10-19T21:54:27.694Z,64.83
2018-10-19T21:56:56.261Z,63.97
2018-10-19T21:59:24.835Z,57.97
2018-10-19T22:01:56.451Z,63.87
2018-10-19T22:04:25.210Z,62.73
2018-10-19T22:06:55.304Z,65.00
2018-10-19T22:09:23.937Z,66.87
2018-10-19T22:11:53.492Z,69.83
2018-10-19T22:14:22.234Z,63.60
2018-10-19T22:16:50.767Z,72.33
2018-10-19T22:19:19.337Z,69.43
2018-10-19T22:21:47.861Z,70.63
2018-10-19T22:24:17.162Z,57.13
2018-10-19T22:26:45.909Z,56.03
2018-10-19T22:29:14.569Z,54.47
2018-10-19T22:31:43.011Z,57.47
2018-10-19T22:34:11.526Z,53.23
2018-10-19T22:36:40.511Z,52.43
2018-10-19T22:39:09.057Z,55.77
2018-10-19T22:41:37.833Z,53.80
2018-10-19T22:44:06.456Z,55.50
2018-10-19T22:46:35.005Z,50.93
2018-10-19T22:49:03.566Z,55.77
2018-10-19T22:51:32.166Z,54.00
2018-10-19T22:54:00.686Z,59.73
2018-10-19T22:56:29.266Z,68.70
2018-10-19T22:58:57.800Z,66.10
2018-10-19T23:01:26.305Z,61.27
2018-10-19T23:03:55.519Z,67.93
2018-10-19T23:06:24.058Z,63.33
2018-10-19T23:08:53.600Z,89.47
2018-10-19T23:11:22.261Z,57.27
2018-10-19T23:13:50.994Z,54.47
2018-10-19T23:16:19.688Z,59.30
2018-10-19T23:18:48.224Z,55.27
2018-10-19T23:21:16.811Z,55.20
2018-10-19T23:23:45.318Z,53.13
2018-10-19T23:26:13.809Z,60.70
2018-10-19T23:28:43.225Z,60.53
2018-10-19T23:31:11.787Z,56.03
2018-10-19T23:33:40.305Z,58.67
2018-10-19T23:36:08.842Z,53.23
2018-10-19T23:38:37.368Z,53.30
2018-10-19T23:41:06.001Z,52.90
2018-10-19T23:43:34.482Z,50.70
2018-10-19T23:46:03.664Z,52.10
2018-10-19T23:48:32.163Z,46.63
2018-10-19T23:51:01.081Z,45.93
2018-10-19T23:53:29.623Z,44.20
2018-10-19T23:55:58.162Z,45.23
2018-10-19T23:58:26.713Z,45.87
